sensor_id;sensor_type;location;lat;lon;timestamp;P1;durP1;ratioP1;P2;durP2;ratioP2
41061;SDS011;26812;42.662;23.352;2023-07-31T00:00:14;3.33;;;2.08;;
41061;SDS011;26812;42.662;23.352;2023-07-31T00:02:40;2.03;;;1.83;;
41061;SDS011;26812;42.662;23.352;2023-07-31T00:05:07;4.03;;;2.00;;
41061;SDS011;26812;42.662;23.352;2023-07-31T00:07:33;2.40;;;2.17;;
41061;SDS011;26812;42.662;23.352;2023-07-31T00:09:58;2.63;;;2.10;;
41061;SDS011;26812;42.662;23.352;2023-07-31T00:12:24;1.83;;;1.73;;
41061;SDS011;26812;42.662;23.352;2023-07-31T00:14:49;3.30;;;2.58;;
41061;SDS011;26812;42.662;23.352;2023-07-31T00:17:16;2.80;;;2.10;;
41061;SDS011;26812;42.662;23.352;2023-07-31T00:19:42;2.38;;;1.90;;
41061;SDS011;26812;42.662;23.352;2023-07-31T00:22:07;2.05;;;1.70;;
41061;SDS011;26812;42.662;23.352;2023-07-31T00:24:33;2.45;;;1.85;;
41061;SDS011;26812;42.662;23.352;2023-07-31T00:26:58;1.90;;;1.73;;
41061;SDS011;26812;42.662;23.352;2023-07-31T00:29:23;2.47;;;1.98;;
41061;SDS011;26812;42.662;23.352;2023-07-31T00:31:49;3.30;;;1.73;;
41061;SDS011;26812;42.662;23.352;2023-07-31T00:34:14;3.00;;;2.20;;
41061;SDS011;26812;42.662;23.352;2023-07-31T00:36:39;4.18;;;2.13;;
41061;SDS011;26812;42.662;23.352;2023-07-31T00:39:05;2.13;;;1.92;;
41061;SDS011;26812;42.662;23.352;2023-07-31T00:41:30;2.25;;;2.03;;
41061;SDS011;26812;42.662;23.352;2023-07-31T00:44:02;2.08;;;1.90;;
41061;SDS011;26812;42.662;23.352;2023-07-31T00:46:28;3.45;;;2.50;;
41061;SDS011;26812;42.662;23.352;2023-07-31T00:48:53;3.08;;;2.70;;
41061;SDS011;26812;42.662;23.352;2023-07-31T00:51:19;3.42;;;3.13;;
41061;SDS011;26812;42.662;23.352;2023-07-31T00:53:44;3.22;;;2.67;;
41061;SDS011;26812;42.662;23.352;2023-07-31T00:56:10;3.50;;;2.75;;
41061;SDS011;26812;42.662;23.352;2023-07-31T00:58:36;3.95;;;3.40;;
41061;SDS011;26812;42.662;23.352;2023-07-31T01:01:01;4.18;;;3.10;;
41061;SDS011;26812;42.662;23.352;2023-07-31T01:03:27;4.03;;;3.15;;
41061;SDS011;26812;42.662;23.352;2023-07-31T01:11:10;4.43;;;3.80;;
41061;SDS011;26812;42.662;23.352;2023-07-31T01:13:42;3.95;;;3.55;;
41061;SDS011;26812;42.662;23.352;2023-07-31T01:16:09;5.25;;;4.03;;
41061;SDS011;26812;42.662;23.352;2023-07-31T01:18:34;6.03;;;4.10;;
41061;SDS011;26812;42.662;23.352;2023-07-31T01:26:45;8.23;;;4.95;;
41061;SDS011;26812;42.662;23.352;2023-07-31T01:29:20;5.88;;;5.13;;
41061;SDS011;26812;42.662;23.352;2023-07-31T01:31:57;7.30;;;5.50;;
41061;SDS011;26812;42.662;23.352;2023-07-31T01:34:26;5.70;;;5.07;;
41061;SDS011;26812;42.662;23.352;2023-07-31T01:36:52;6.00;;;5.03;;
41061;SDS011;26812;42.662;23.352;2023-07-31T01:39:19;10.10;;;5.60;;
41061;SDS011;26812;42.662;23.352;2023-07-31T01:41:45;8.32;;;6.45;;
41061;SDS011;26812;42.662;23.352;2023-07-31T01:44:11;7.72;;;6.18;;
41061;SDS011;26812;42.662;23.352;2023-07-31T01:46:36;9.57;;;8.15;;
41061;SDS011;26812;42.662;23.352;2023-07-31T01:49:01;8.80;;;7.13;;
41061;SDS011;26812;42.662;23.352;2023-07-31T01:51:27;8.73;;;6.82;;
41061;SDS011;26812;42.662;23.352;2023-07-31T01:53:52;10.55;;;7.47;;
41061;SDS011;26812;42.662;23.352;2023-07-31T01:56:17;8.88;;;7.07;;
41061;SDS011;26812;42.662;23.352;2023-07-31T01:58:43;9.35;;;7.55;;
41061;SDS011;26812;42.662;23.352;2023-07-31T02:01:08;12.38;;;8.10;;
41061;SDS011;26812;42.662;23.352;2023-07-31T02:03:33;11.60;;;8.73;;
41061;SDS011;26812;42.662;23.352;2023-07-31T02:05:59;10.20;;;8.10;;
41061;SDS011;26812;42.662;23.352;2023-07-31T02:08:25;12.55;;;8.23;;
41061;SDS011;26812;42.662;23.352;2023-07-31T02:10:50;14.02;;;9.60;;
41061;SDS011;26812;42.662;23.352;2023-07-31T02:13:16;16.95;;;10.35;;
41061;SDS011;26812;42.662;23.352;2023-07-31T02:15:42;12.35;;;9.52;;
41061;SDS011;26812;42.662;23.352;2023-07-31T02:18:07;15.13;;;9.57;;
41061;SDS011;26812;42.662;23.352;2023-07-31T02:20:35;13.02;;;10.52;;
41061;SDS011;26812;42.662;23.352;2023-07-31T02:23:00;14.70;;;10.88;;
41061;SDS011;26812;42.662;23.352;2023-07-31T02:25:26;13.43;;;9.18;;
41061;SDS011;26812;42.662;23.352;2023-07-31T02:27:51;13.10;;;9.98;;
41061;SDS011;26812;42.662;23.352;2023-07-31T02:30:17;14.65;;;11.07;;
41061;SDS011;26812;42.662;23.352;2023-07-31T02:32:42;16.23;;;11.00;;
41061;SDS011;26812;42.662;23.352;2023-07-31T02:35:08;16.25;;;11.73;;
41061;SDS011;26812;42.662;23.352;2023-07-31T02:37:33;16.35;;;11.25;;
41061;SDS011;26812;42.662;23.352;2023-07-31T02:39:59;15.50;;;10.52;;
41061;SDS011;26812;42.662;23.352;2023-07-31T02:42:24;14.13;;;10.20;;
41061;SDS011;26812;42.662;23.352;2023-07-31T02:44:49;15.68;;;11.20;;
41061;SDS011;26812;42.662;23.352;2023-07-31T02:47:20;14.43;;;10.48;;
41061;SDS011;26812;42.662;23.352;2023-07-31T02:49:46;15.52;;;10.60;;
41061;SDS011;26812;42.662;23.352;2023-07-31T02:52:11;14.73;;;11.00;;
41061;SDS011;26812;42.662;23.352;2023-07-31T02:54:36;14.77;;;11.10;;
41061;SDS011;26812;42.662;23.352;2023-07-31T02:57:02;14.15;;;11.18;;
41061;SDS011;26812;42.662;23.352;2023-07-31T02:59:28;13.38;;;9.95;;
41061;SDS011;26812;42.662;23.352;2023-07-31T03:01:53;14.52;;;9.93;;
41061;SDS011;26812;42.662;23.352;2023-07-31T03:04:19;14.35;;;10.52;;
41061;SDS011;26812;42.662;23.352;2023-07-31T03:06:44;17.05;;;10.68;;
41061;SDS011;26812;42.662;23.352;2023-07-31T03:09:09;14.70;;;11.07;;
41061;SDS011;26812;42.662;23.352;2023-07-31T03:11:35;13.98;;;10.20;;
41061;SDS011;26812;42.662;23.352;2023-07-31T03:14:00;16.73;;;10.05;;
41061;SDS011;26812;42.662;23.352;2023-07-31T03:16:25;13.07;;;9.88;;
41061;SDS011;26812;42.662;23.352;2023-07-31T03:18:51;14.75;;;10.70;;
41061;SDS011;26812;42.662;23.352;2023-07-31T03:21:16;13.32;;;9.90;;
41061;SDS011;26812;42.662;23.352;2023-07-31T03:23:41;14.20;;;11.10;;
41061;SDS011;26812;42.662;23.352;2023-07-31T03:26:08;13.57;;;10.20;;
41061;SDS011;26812;42.662;23.352;2023-07-31T03:28:34;13.27;;;10.85;;
41061;SDS011;26812;42.662;23.352;2023-07-31T03:30:59;13.93;;;10.27;;
41061;SDS011;26812;42.662;23.352;2023-07-31T03:33:25;12.82;;;10.40;;
41061;SDS011;26812;42.662;23.352;2023-07-31T03:35:50;14.65;;;10.60;;
41061;SDS011;26812;42.662;23.352;2023-07-31T03:38:16;15.07;;;11.25;;
41061;SDS011;26812;42.662;23.352;2023-07-31T03:40:48;14.65;;;10.88;;
41061;SDS011;26812;42.662;23.352;2023-07-31T03:43:14;13.93;;;10.38;;
41061;SDS011;26812;42.662;23.352;2023-07-31T03:45:40;13.18;;;10.32;;
41061;SDS011;26812;42.662;23.352;2023-07-31T03:48:05;14.50;;;11.13;;
41061;SDS011;26812;42.662;23.352;2023-07-31T03:50:32;15.65;;;10.50;;
41061;SDS011;26812;42.662;23.352;2023-07-31T03:52:58;13.68;;;10.20;;
41061;SDS011;26812;42.662;23.352;2023-07-31T03:55:23;14.75;;;11.07;;
41061;SDS011;26812;42.662;23.352;2023-07-31T03:57:48;14.10;;;10.65;;
41061;SDS011;26812;42.662;23.352;2023-07-31T04:00:14;21.70;;;11.52;;
41061;SDS011;26812;42.662;23.352;2023-07-31T04:02:39;19.48;;;11.43;;
41061;SDS011;26812;42.662;23.352;2023-07-31T04:05:05;16.75;;;11.18;;
41061;SDS011;26812;42.662;23.352;2023-07-31T04:07:31;16.67;;;11.68;;
41061;SDS011;26812;42.662;23.352;2023-07-31T04:09:57;14.75;;;10.93;;
41061;SDS011;26812;42.662;23.352;2023-07-31T04:12:22;18.73;;;11.65;;
41061;SDS011;26812;42.662;23.352;2023-07-31T04:14:48;15.88;;;11.23;;
41061;SDS011;26812;42.662;23.352;2023-07-31T04:17:13;16.98;;;11.90;;
41061;SDS011;26812;42.662;23.352;2023-07-31T04:19:38;18.83;;;12.45;;
41061;SDS011;26812;42.662;23.352;2023-07-31T04:22:04;16.35;;;10.90;;
41061;SDS011;26812;42.662;23.352;2023-07-31T04:24:29;20.45;;;12.65;;
41061;SDS011;26812;42.662;23.352;2023-07-31T04:26:55;17.65;;;11.48;;
41061;SDS011;26812;42.662;23.352;2023-07-31T04:29:21;15.60;;;11.25;;
41061;SDS011;26812;42.662;23.352;2023-07-31T04:31:47;16.40;;;11.63;;
41061;SDS011;26812;42.662;23.352;2023-07-31T04:34:13;17.98;;;12.40;;
41061;SDS011;26812;42.662;23.352;2023-07-31T04:36:39;18.45;;;13.05;;
41061;SDS011;26812;42.662;23.352;2023-07-31T04:39:04;20.65;;;12.88;;
41061;SDS011;26812;42.662;23.352;2023-07-31T04:41:30;15.00;;;10.02;;
41061;SDS011;26812;42.662;23.352;2023-07-31T04:43:55;15.85;;;10.95;;
41061;SDS011;26812;42.662;23.352;2023-07-31T04:46:20;17.02;;;11.27;;
41061;SDS011;26812;42.662;23.352;2023-07-31T04:48:46;17.92;;;11.52;;
41061;SDS011;26812;42.662;23.352;2023-07-31T04:51:11;15.85;;;11.02;;
41061;SDS011;26812;42.662;23.352;2023-07-31T04:53:36;18.02;;;10.68;;
41061;SDS011;26812;42.662;23.352;2023-07-31T04:56:02;16.58;;;11.20;;
41061;SDS011;26812;42.662;23.352;2023-07-31T04:58:27;18.23;;;12.00;;
41061;SDS011;26812;42.662;23.352;2023-07-31T05:00:53;15.38;;;9.93;;
41061;SDS011;26812;42.662;23.352;2023-07-31T05:03:18;15.77;;;11.27;;
41061;SDS011;26812;42.662;23.352;2023-07-31T05:05:44;15.85;;;10.55;;
41061;SDS011;26812;42.662;23.352;2023-07-31T05:08:09;17.90;;;11.88;;
41061;SDS011;26812;42.662;23.352;2023-07-31T05:10:34;16.15;;;10.70;;
41061;SDS011;26812;42.662;23.352;2023-07-31T05:13:00;20.67;;;11.65;;
41061;SDS011;26812;42.662;23.352;2023-07-31T05:15:25;17.52;;;11.43;;
41061;SDS011;26812;42.662;23.352;2023-07-31T05:17:51;16.73;;;11.45;;
41061;SDS011;26812;42.662;23.352;2023-07-31T05:20:16;16.15;;;10.73;;
41061;SDS011;26812;42.662;23.352;2023-07-31T05:22:41;17.02;;;11.10;;
41061;SDS011;26812;42.662;23.352;2023-07-31T05:25:07;14.10;;;10.55;;
41061;SDS011;26812;42.662;23.352;2023-07-31T05:27:32;14.73;;;10.43;;
41061;SDS011;26812;42.662;23.352;2023-07-31T05:29:58;13.23;;;8.85;;
41061;SDS011;26812;42.662;23.352;2023-07-31T05:32:23;13.55;;;9.48;;
41061;SDS011;26812;42.662;23.352;2023-07-31T05:34:52;13.73;;;9.45;;
41061;SDS011;26812;42.662;23.352;2023-07-31T05:37:18;14.02;;;9.38;;
41061;SDS011;26812;42.662;23.352;2023-07-31T05:39:44;15.75;;;9.45;;
41061;SDS011;26812;42.662;23.352;2023-07-31T05:42:09;11.38;;;8.73;;
41061;SDS011;26812;42.662;23.352;2023-07-31T05:44:34;11.95;;;8.57;;
41061;SDS011;26812;42.662;23.352;2023-07-31T05:47:00;13.65;;;8.48;;
41061;SDS011;26812;42.662;23.352;2023-07-31T05:49:25;12.93;;;8.20;;
41061;SDS011;26812;42.662;23.352;2023-07-31T05:51:50;14.40;;;9.60;;
41061;SDS011;26812;42.662;23.352;2023-07-31T05:54:16;11.50;;;7.95;;
41061;SDS011;26812;42.662;23.352;2023-07-31T05:56:41;10.77;;;7.75;;
41061;SDS011;26812;42.662;23.352;2023-07-31T05:59:08;9.70;;;8.68;;
41061;SDS011;26812;42.662;23.352;2023-07-31T06:01:34;8.85;;;6.70;;
41061;SDS011;26812;42.662;23.352;2023-07-31T06:03:59;9.93;;;7.88;;
41061;SDS011;26812;42.662;23.352;2023-07-31T06:06:24;9.90;;;6.60;;
41061;SDS011;26812;42.662;23.352;2023-07-31T06:08:50;8.82;;;6.78;;
41061;SDS011;26812;42.662;23.352;2023-07-31T06:11:15;8.73;;;6.70;;
41061;SDS011;26812;42.662;23.352;2023-07-31T06:13:41;7.13;;;5.82;;
41061;SDS011;26812;42.662;23.352;2023-07-31T06:16:06;7.43;;;5.22;;
41061;SDS011;26812;42.662;23.352;2023-07-31T06:18:32;5.63;;;5.03;;
41061;SDS011;26812;42.662;23.352;2023-07-31T06:20:58;6.72;;;4.55;;
41061;SDS011;26812;42.662;23.352;2023-07-31T06:23:23;5.03;;;4.10;;
41061;SDS011;26812;42.662;23.352;2023-07-31T06:25:48;5.38;;;3.95;;
41061;SDS011;26812;42.662;23.352;2023-07-31T06:28:14;3.28;;;2.90;;
41061;SDS011;26812;42.662;23.352;2023-07-31T06:30:39;4.70;;;3.05;;
41061;SDS011;26812;42.662;23.352;2023-07-31T06:33:05;3.45;;;2.60;;
41061;SDS011;26812;42.662;23.352;2023-07-31T06:35:30;4.20;;;2.92;;
41061;SDS011;26812;42.662;23.352;2023-07-31T06:37:56;4.43;;;3.42;;
41061;SDS011;26812;42.662;23.352;2023-07-31T06:40:21;4.22;;;3.60;;
41061;SDS011;26812;42.662;23.352;2023-07-31T06:42:47;5.38;;;3.40;;
41061;SDS011;26812;42.662;23.352;2023-07-31T06:45:13;5.32;;;3.28;;
41061;SDS011;26812;42.662;23.352;2023-07-31T06:47:38;3.72;;;2.80;;
41061;SDS011;26812;42.662;23.352;2023-07-31T06:50:04;3.42;;;3.05;;
41061;SDS011;26812;42.662;23.352;2023-07-31T06:52:30;3.25;;;2.95;;
41061;SDS011;26812;42.662;23.352;2023-07-31T06:55:02;5.05;;;3.08;;
41061;SDS011;26812;42.662;23.352;2023-07-31T06:57:29;5.35;;;2.95;;
41061;SDS011;26812;42.662;23.352;2023-07-31T06:59:54;4.40;;;3.60;;
41061;SDS011;26812;42.662;23.352;2023-07-31T07:02:20;3.13;;;2.80;;
41061;SDS011;26812;42.662;23.352;2023-07-31T07:04:45;2.90;;;2.63;;
41061;SDS011;26812;42.662;23.352;2023-07-31T07:07:11;2.97;;;2.42;;
41061;SDS011;26812;42.662;23.352;2023-07-31T07:09:36;3.35;;;2.30;;
41061;SDS011;26812;42.662;23.352;2023-07-31T07:12:02;2.40;;;2.17;;
41061;SDS011;26812;42.662;23.352;2023-07-31T07:14:27;3.22;;;2.33;;
41061;SDS011;26812;42.662;23.352;2023-07-31T07:16:52;4.00;;;2.47;;
41061;SDS011;26812;42.662;23.352;2023-07-31T07:19:18;3.05;;;2.65;;
41061;SDS011;26812;42.662;23.352;2023-07-31T07:21:43;2.83;;;2.42;;
41061;SDS011;26812;42.662;23.352;2023-07-31T07:24:09;3.35;;;2.30;;
41061;SDS011;26812;42.662;23.352;2023-07-31T07:26:34;2.97;;;2.67;;
41061;SDS011;26812;42.662;23.352;2023-07-31T07:28:59;3.40;;;2.33;;
41061;SDS011;26812;42.662;23.352;2023-07-31T07:31:27;2.58;;;2.33;;
41061;SDS011;26812;42.662;23.352;2023-07-31T07:33:52;2.95;;;2.53;;
41061;SDS011;26812;42.662;23.352;2023-07-31T07:36:18;3.00;;;2.05;;
41061;SDS011;26812;42.662;23.352;2023-07-31T07:38:43;3.30;;;2.65;;
41061;SDS011;26812;42.662;23.352;2023-07-31T07:41:08;2.20;;;1.92;;
41061;SDS011;26812;42.662;23.352;2023-07-31T07:43:34;4.10;;;1.90;;
41061;SDS011;26812;42.662;23.352;2023-07-31T07:45:59;3.78;;;1.92;;
41061;SDS011;26812;42.662;23.352;2023-07-31T07:48:24;3.05;;;2.10;;
41061;SDS011;26812;42.662;23.352;2023-07-31T07:50:50;3.20;;;2.47;;
41061;SDS011;26812;42.662;23.352;2023-07-31T07:53:16;3.20;;;2.25;;
41061;SDS011;26812;42.662;23.352;2023-07-31T07:55:41;2.03;;;1.88;;
41061;SDS011;26812;42.662;23.352;2023-07-31T07:58:07;5.25;;;2.75;;
41061;SDS011;26812;42.662;23.352;2023-07-31T08:00:33;2.95;;;2.47;;
41061;SDS011;26812;42.662;23.352;2023-07-31T08:02:58;3.28;;;2.28;;
41061;SDS011;26812;42.662;23.352;2023-07-31T08:05:24;2.50;;;1.95;;
41061;SDS011;26812;42.662;23.352;2023-07-31T08:07:49;1.65;;;1.42;;
41061;SDS011;26812;42.662;23.352;2023-07-31T08:10:15;2.13;;;1.70;;
41061;SDS011;26812;42.662;23.352;2023-07-31T08:12:40;1.90;;;1.60;;
41061;SDS011;26812;42.662;23.352;2023-07-31T08:15:06;3.28;;;1.70;;
41061;SDS011;26812;42.662;23.352;2023-07-31T08:17:31;2.42;;;2.00;;
41061;SDS011;26812;42.662;23.352;2023-07-31T08:19:57;2.45;;;1.95;;
41061;SDS011;26812;42.662;23.352;2023-07-31T08:22:23;2.42;;;1.73;;
41061;SDS011;26812;42.662;23.352;2023-07-31T08:24:49;2.13;;;1.80;;
41061;SDS011;26812;42.662;23.352;2023-07-31T08:27:14;2.83;;;2.53;;
41061;SDS011;26812;42.662;23.352;2023-07-31T08:29:40;2.58;;;1.95;;
41061;SDS011;26812;42.662;23.352;2023-07-31T08:32:05;2.67;;;1.92;;
41061;SDS011;26812;42.662;23.352;2023-07-31T08:34:31;2.10;;;1.90;;
41061;SDS011;26812;42.662;23.352;2023-07-31T08:36:56;2.67;;;2.42;;
41061;SDS011;26812;42.662;23.352;2023-07-31T08:39:21;4.25;;;2.30;;
41061;SDS011;26812;42.662;23.352;2023-07-31T08:41:47;6.22;;;2.50;;
41061;SDS011;26812;42.662;23.352;2023-07-31T08:44:12;2.63;;;2.42;;
41061;SDS011;26812;42.662;23.352;2023-07-31T08:46:40;5.50;;;2.28;;
41061;SDS011;26812;42.662;23.352;2023-07-31T08:49:06;3.03;;;2.00;;
41061;SDS011;26812;42.662;23.352;2023-07-31T08:51:35;3.38;;;2.58;;
41061;SDS011;26812;42.662;23.352;2023-07-31T08:54:02;3.83;;;2.03;;
41061;SDS011;26812;42.662;23.352;2023-07-31T08:56:31;2.95;;;2.28;;
41061;SDS011;26812;42.662;23.352;2023-07-31T08:58:57;3.25;;;2.50;;
41061;SDS011;26812;42.662;23.352;2023-07-31T09:01:24;3.38;;;2.00;;
41061;SDS011;26812;42.662;23.352;2023-07-31T09:03:51;2.33;;;1.88;;
41061;SDS011;26812;42.662;23.352;2023-07-31T09:06:18;2.17;;;1.95;;
41061;SDS011;26812;42.662;23.352;2023-07-31T09:08:45;3.30;;;2.13;;
41061;SDS011;26812;42.662;23.352;2023-07-31T09:11:11;1.92;;;1.75;;
41061;SDS011;26812;42.662;23.352;2023-07-31T09:13:37;2.15;;;2.05;;
41061;SDS011;26812;42.662;23.352;2023-07-31T09:16:05;2.45;;;2.25;;
41061;SDS011;26812;42.662;23.352;2023-07-31T09:18:30;2.92;;;1.60;;
41061;SDS011;26812;42.662;23.352;2023-07-31T09:21:05;1.83;;;1.60;;
41061;SDS011;26812;42.662;23.352;2023-07-31T09:23:40;2.83;;;1.98;;
41061;SDS011;26812;42.662;23.352;2023-07-31T09:26:11;2.25;;;1.80;;
41061;SDS011;26812;42.662;23.352;2023-07-31T09:28:37;1.98;;;1.88;;
41061;SDS011;26812;42.662;23.352;2023-07-31T09:31:02;2.40;;;1.88;;
41061;SDS011;26812;42.662;23.352;2023-07-31T09:33:27;3.70;;;1.83;;
41061;SDS011;26812;42.662;23.352;2023-07-31T09:35:53;3.22;;;1.90;;
41061;SDS011;26812;42.662;23.352;2023-07-31T09:38:18;2.08;;;1.83;;
41061;SDS011;26812;42.662;23.352;2023-07-31T09:40:44;2.67;;;2.03;;
41061;SDS011;26812;42.662;23.352;2023-07-31T09:46:06;3.00;;;2.15;;
41061;SDS011;26812;42.662;23.352;2023-07-31T09:48:47;2.80;;;1.90;;
41061;SDS011;26812;42.662;23.352;2023-07-31T09:51:13;2.53;;;2.10;;
41061;SDS011;26812;42.662;23.352;2023-07-31T09:53:41;2.22;;;2.03;;
41061;SDS011;26812;42.662;23.352;2023-07-31T09:56:06;3.95;;;2.95;;
41061;SDS011;26812;42.662;23.352;2023-07-31T09:58:35;2.08;;;1.63;;
41061;SDS011;26812;42.662;23.352;2023-07-31T10:01:03;2.63;;;1.88;;
41061;SDS011;26812;42.662;23.352;2023-07-31T10:03:39;1.75;;;1.65;;
41061;SDS011;26812;42.662;23.352;2023-07-31T10:06:16;1.95;;;1.80;;
41061;SDS011;26812;42.662;23.352;2023-07-31T10:08:48;3.25;;;2.08;;
41061;SDS011;26812;42.662;23.352;2023-07-31T10:11:16;1.90;;;1.70;;
41061;SDS011;26812;42.662;23.352;2023-07-31T10:13:42;1.38;;;1.27;;
41061;SDS011;26812;42.662;23.352;2023-07-31T10:16:08;3.05;;;1.75;;
41061;SDS011;26812;42.662;23.352;2023-07-31T10:18:34;1.80;;;1.52;;
41061;SDS011;26812;42.662;23.352;2023-07-31T10:21:01;2.60;;;1.58;;
41061;SDS011;26812;42.662;23.352;2023-07-31T10:23:27;2.33;;;1.50;;
41061;SDS011;26812;42.662;23.352;2023-07-31T10:26:00;1.55;;;1.33;;
41061;SDS011;26812;42.662;23.352;2023-07-31T10:28:27;2.20;;;1.60;;
41061;SDS011;26812;42.662;23.352;2023-07-31T10:30:54;4.28;;;1.98;;
41061;SDS011;26812;42.662;23.352;2023-07-31T10:33:20;1.40;;;1.30;;
41061;SDS011;26812;42.662;23.352;2023-07-31T10:35:47;4.50;;;1.50;;
41061;SDS011;26812;42.662;23.352;2023-07-31T10:38:13;3.53;;;1.65;;
41061;SDS011;26812;42.662;23.352;2023-07-31T10:40:39;1.75;;;1.35;;
41061;SDS011;26812;42.662;23.352;2023-07-31T10:43:05;2.17;;;1.40;;
41061;SDS011;26812;42.662;23.352;2023-07-31T10:48:02;1.50;;;1.40;;
41061;SDS011;26812;42.662;23.352;2023-07-31T10:50:30;2.00;;;1.20;;
41061;SDS011;26812;42.662;23.352;2023-07-31T10:52:59;1.95;;;1.48;;
41061;SDS011;26812;42.662;23.352;2023-07-31T10:57:51;1.75;;;1.48;;
41061;SDS011;26812;42.662;23.352;2023-07-31T11:00:18;1.52;;;1.20;;
41061;SDS011;26812;42.662;23.352;2023-07-31T11:03:03;1.70;;;1.13;;
41061;SDS011;26812;42.662;23.352;2023-07-31T11:08:17;2.47;;;1.40;;
41061;SDS011;26812;42.662;23.352;2023-07-31T11:10:46;1.63;;;1.10;;
41061;SDS011;26812;42.662;23.352;2023-07-31T11:13:12;1.30;;;1.20;;
41061;SDS011;26812;42.662;23.352;2023-07-31T11:15:38;1.75;;;1.45;;
41061;SDS011;26812;42.662;23.352;2023-07-31T11:18:04;1.20;;;1.10;;
41061;SDS011;26812;42.662;23.352;2023-07-31T11:20:31;1.45;;;1.27;;
41061;SDS011;26812;42.662;23.352;2023-07-31T11:23:03;1.00;;;0.90;;
41061;SDS011;26812;42.662;23.352;2023-07-31T11:25:31;1.80;;;1.00;;
41061;SDS011;26812;42.662;23.352;2023-07-31T11:28:08;0.88;;;0.88;;
41061;SDS011;26812;42.662;23.352;2023-07-31T11:30:41;1.73;;;1.33;;
41061;SDS011;26812;42.662;23.352;2023-07-31T11:33:08;1.20;;;0.98;;
41061;SDS011;26812;42.662;23.352;2023-07-31T11:35:36;2.55;;;1.50;;
41061;SDS011;26812;42.662;23.352;2023-07-31T11:38:10;1.33;;;1.23;;
41061;SDS011;26812;42.662;23.352;2023-07-31T11:40:43;1.23;;;1.10;;
41061;SDS011;26812;42.662;23.352;2023-07-31T11:43:09;1.40;;;1.15;;
41061;SDS011;26812;42.662;23.352;2023-07-31T11:45:36;0.98;;;0.85;;
41061;SDS011;26812;42.662;23.352;2023-07-31T11:48:03;1.35;;;1.10;;
41061;SDS011;26812;42.662;23.352;2023-07-31T11:50:28;2.70;;;1.45;;
41061;SDS011;26812;42.662;23.352;2023-07-31T11:52:59;1.48;;;1.35;;
41061;SDS011;26812;42.662;23.352;2023-07-31T11:55:27;1.90;;;1.60;;
41061;SDS011;26812;42.662;23.352;2023-07-31T11:57:54;1.88;;;1.10;;
41061;SDS011;26812;42.662;23.352;2023-07-31T12:00:22;1.60;;;1.27;;
41061;SDS011;26812;42.662;23.352;2023-07-31T12:02:48;1.60;;;1.50;;
41061;SDS011;26812;42.662;23.352;2023-07-31T12:05:13;2.42;;;1.50;;
41061;SDS011;26812;42.662;23.352;2023-07-31T12:07:43;2.33;;;1.70;;
41061;SDS011;26812;42.662;23.352;2023-07-31T12:10:09;2.75;;;1.65;;
41061;SDS011;26812;42.662;23.352;2023-07-31T12:12:35;2.50;;;1.67;;
41061;SDS011;26812;42.662;23.352;2023-07-31T12:15:00;2.33;;;1.73;;
41061;SDS011;26812;42.662;23.352;2023-07-31T12:17:25;2.13;;;1.90;;
41061;SDS011;26812;42.662;23.352;2023-07-31T12:19:51;1.80;;;1.70;;
41061;SDS011;26812;42.662;23.352;2023-07-31T12:22:16;2.10;;;1.90;;
41061;SDS011;26812;42.662;23.352;2023-07-31T12:24:42;2.55;;;1.80;;
41061;SDS011;26812;42.662;23.352;2023-07-31T12:27:12;5.57;;;1.85;;
41061;SDS011;26812;42.662;23.352;2023-07-31T12:29:43;2.58;;;2.13;;
41061;SDS011;26812;42.662;23.352;2023-07-31T12:35:06;3.53;;;2.90;;
41061;SDS011;26812;42.662;23.352;2023-07-31T12:37:32;4.38;;;3.28;;
41061;SDS011;26812;42.662;23.352;2023-07-31T12:39:58;4.18;;;3.45;;
41061;SDS011;26812;42.662;23.352;2023-07-31T12:42:30;3.50;;;2.70;;
41061;SDS011;26812;42.662;23.352;2023-07-31T12:44:55;4.00;;;3.60;;
41061;SDS011;26812;42.662;23.352;2023-07-31T12:47:21;2.97;;;2.63;;
41061;SDS011;26812;42.662;23.352;2023-07-31T12:49:46;3.20;;;2.50;;
41061;SDS011;26812;42.662;23.352;2023-07-31T12:52:12;3.35;;;2.60;;
41061;SDS011;26812;42.662;23.352;2023-07-31T12:54:37;3.97;;;2.90;;
41061;SDS011;26812;42.662;23.352;2023-07-31T12:57:02;2.85;;;2.58;;
41061;SDS011;26812;42.662;23.352;2023-07-31T12:59:28;5.72;;;3.38;;
41061;SDS011;26812;42.662;23.352;2023-07-31T13:01:53;3.47;;;3.05;;
41061;SDS011;26812;42.662;23.352;2023-07-31T13:04:19;3.35;;;2.75;;
41061;SDS011;26812;42.662;23.352;2023-07-31T13:06:44;4.40;;;3.55;;
41061;SDS011;26812;42.662;23.352;2023-07-31T13:09:10;3.15;;;2.83;;
41061;SDS011;26812;42.662;23.352;2023-07-31T13:11:36;3.53;;;3.13;;
41061;SDS011;26812;42.662;23.352;2023-07-31T13:14:01;4.03;;;3.17;;
41061;SDS011;26812;42.662;23.352;2023-07-31T13:16:26;4.13;;;3.17;;
41061;SDS011;26812;42.662;23.352;2023-07-31T13:18:53;6.10;;;3.45;;
41061;SDS011;26812;42.662;23.352;2023-07-31T13:21:18;4.35;;;3.50;;
41061;SDS011;26812;42.662;23.352;2023-07-31T13:23:44;3.92;;;3.33;;
41061;SDS011;26812;42.662;23.352;2023-07-31T13:26:09;3.90;;;3.35;;
41061;SDS011;26812;42.662;23.352;2023-07-31T13:28:34;3.25;;;2.88;;
41061;SDS011;26812;42.662;23.352;2023-07-31T13:31:00;4.57;;;3.50;;
41061;SDS011;26812;42.662;23.352;2023-07-31T13:33:25;4.85;;;3.42;;
41061;SDS011;26812;42.662;23.352;2023-07-31T13:35:50;3.28;;;2.78;;
41061;SDS011;26812;42.662;23.352;2023-07-31T13:38:16;5.63;;;3.00;;
41061;SDS011;26812;42.662;23.352;2023-07-31T13:40:41;3.17;;;2.80;;
41061;SDS011;26812;42.662;23.352;2023-07-31T13:43:07;3.47;;;2.70;;
41061;SDS011;26812;42.662;23.352;2023-07-31T13:45:32;3.15;;;2.47;;
41061;SDS011;26812;42.662;23.352;2023-07-31T13:47:57;3.63;;;3.13;;
41061;SDS011;26812;42.662;23.352;2023-07-31T13:50:23;3.47;;;2.85;;
41061;SDS011;26812;42.662;23.352;2023-07-31T13:52:48;3.90;;;2.70;;
41061;SDS011;26812;42.662;23.352;2023-07-31T13:55:14;5.40;;;3.00;;
41061;SDS011;26812;42.662;23.352;2023-07-31T13:57:39;3.75;;;2.75;;
41061;SDS011;26812;42.662;23.352;2023-07-31T14:00:05;4.30;;;2.88;;
41061;SDS011;26812;42.662;23.352;2023-07-31T14:02:30;3.15;;;2.60;;
41061;SDS011;26812;42.662;23.352;2023-07-31T14:04:56;4.20;;;3.13;;
41061;SDS011;26812;42.662;23.352;2023-07-31T14:07:21;3.97;;;2.88;;
41061;SDS011;26812;42.662;23.352;2023-07-31T14:09:47;3.08;;;2.58;;
41061;SDS011;26812;42.662;23.352;2023-07-31T14:12:12;3.50;;;2.72;;
41061;SDS011;26812;42.662;23.352;2023-07-31T14:14:37;3.17;;;2.80;;
41061;SDS011;26812;42.662;23.352;2023-07-31T14:17:03;2.55;;;2.13;;
41061;SDS011;26812;42.662;23.352;2023-07-31T14:19:28;2.72;;;2.33;;
41061;SDS011;26812;42.662;23.352;2023-07-31T14:22:00;3.33;;;2.88;;
41061;SDS011;26812;42.662;23.352;2023-07-31T14:24:25;5.25;;;2.78;;
41061;SDS011;26812;42.662;23.352;2023-07-31T14:26:51;2.97;;;2.70;;
41061;SDS011;26812;42.662;23.352;2023-07-31T14:29:16;2.95;;;2.67;;
41061;SDS011;26812;42.662;23.352;2023-07-31T14:31:41;4.40;;;2.85;;
41061;SDS011;26812;42.662;23.352;2023-07-31T14:34:07;3.75;;;2.95;;
41061;SDS011;26812;42.662;23.352;2023-07-31T14:36:32;3.67;;;2.78;;
41061;SDS011;26812;42.662;23.352;2023-07-31T14:38:57;5.50;;;3.15;;
41061;SDS011;26812;42.662;23.352;2023-07-31T14:41:23;2.97;;;2.45;;
41061;SDS011;26812;42.662;23.352;2023-07-31T14:43:48;3.15;;;2.65;;
41061;SDS011;26812;42.662;23.352;2023-07-31T14:46:14;3.67;;;2.83;;